• Join FlightAware (Why Join?)
  • Login
  • US Flag 
04:21PM EDT


 

Airport Tracker/Info


-or-


 

Live Flight TrackerFlight Track Log ✈ SKW6492 ✈ 30-Aug-2013 ✈ KDEN - KCOD

Flight Track Log - Related Links

Times and Time Zones

All times are in EDT time to prevent confusion due to time zone crossing. See the SKW6492 flight status page for this flight to view local times or setup timezone preferences in your user account.

Time Position Orientation Groundspeed Altitude Reporting Facility
EDT Latitude Longitude Course Direction KTS MPH feet Rate Location/Type
09:44PM 39.8667 -104.7833 346° North 226 260 7,400  Level Denver TRACON
09:45PM 39.9333 -104.8167 339° North 270 311 9,000 1,560 Climbing Denver TRACON
09:46PM 40.1650 -104.7711 347° North  Level FlightAware Approximate
09:46PM 39.9711 -104.8236 352° North 276 318 9,900  Level Denver Center
09:47PM 40.2708 -104.8029 347° North  Level FlightAware Approximate
09:47PM 40.0519 -104.8392 352° North 291 335 11,800  Level Denver Center
09:48PM 40.3763 -104.8365 346° North  Level FlightAware Approximate
09:48PM 40.1433 -104.8589 351° North 308 354 13,900  Level Denver Center
09:49PM 40.4815 -104.8716 346° North  Level FlightAware Approximate
09:49PM 40.2269 -104.8653 357° North 294 338 15,900  Level Denver Center
09:50PM 40.3142 -104.8633 North 316 364 17,400 1,380 Climbing Denver Center
09:51PM 40.4083 -104.8614 North 314 361 18,800 1,260 Climbing Denver Center
09:52PM 40.4975 -104.8606 360° North 321 369 20,100 1,020 Climbing Denver Center
09:53PM 40.6000 -104.8558 North 343 395 21,000 660 Climbing Denver Center
09:54PM 40.6961 -104.8561 360° North 349 402 21,500 780 Climbing Denver Center
09:55PM 40.7892 -104.8511 North 343 395 22,700 900 Climbing Denver Center
09:56PM 40.8808 -104.8964 340° North 350 403 23,400 720 Climbing Denver Center
09:57PM 40.9739 -104.9403 340° North 356 410 24,200 840 Climbing Denver Center
09:58PM 41.0786 -104.9917 340° North 363 418 25,200 960 Climbing Denver Center
09:59PM 41.1861 -105.0444 340° North 369 425 26,200 720 Climbing Denver Center
10:00PM 41.2792 -105.0925 339° North 373 429 26,700 600 Climbing Denver Center
10:01PM 41.3925 -105.1483 340° North 385 443 27,500 660 Climbing Denver Center
10:02PM 41.4900 -105.1989 339° North 391 450 28,100 600 Climbing Denver Center
10:03PM 41.5822 -105.2581 334° Northwest 390 449 28,800 600 Climbing Denver Center
10:04PM 41.6739 -105.3547 322° Northwest 377 434 29,400 480 Climbing Denver Center
10:05PM 41.7542 -105.4414 321° Northwest 381 438 29,900 480 Climbing Denver Center
10:06PM 41.8475 -105.5417 321° Northwest 384 442 30,400 480 Climbing Denver Center
10:07PM 41.9281 -105.6303 321° Northwest 388 447 30,900 480 Climbing Denver Center
10:08PM 42.0222 -105.7333 321° Northwest 389 448 31,500 480 Climbing Denver Center
10:09PM 42.1019 -105.8211 321° Northwest 386 444 32,000 240 Climbing Denver Center
10:10PM 42.1806 -105.9092 320° Northwest 383 441 32,000  Level Denver Center
10:11PM 42.2775 -106.0167 321° Northwest 399 459 32,000  Level Denver Center
10:12PM 42.3600 -106.1083 321° Northwest 399 459 32,000  Level Denver Center
10:13PM 42.4572 -106.2161 321° Northwest 402 463 32,000  Level Denver Center
10:14PM 42.5403 -106.3083 321° Northwest 404 465 32,000  Level Denver Center
10:15PM 42.6358 -106.4156 320° Northwest 401 461 32,000  Level Denver Center
10:16PM 42.7178 -106.5083 320° Northwest 398 458 32,000  Level Denver Center
10:18PM 42.8000 -106.6000 321° Northwest 399 459 32,000  Level Denver Center
10:19PM 42.8922 -106.7069 320° Northwest 393 452 32,000  Level Denver Center
10:20PM 42.9742 -106.7978 321° Northwest 395 455 32,000  Level Denver Center
10:20PM 43.0397 -106.8767 319° Northwest 392 451 32,000  Level Salt Lake Center
10:21PM 43.1203 -106.9694 320° Northwest 394 453 32,000  Level Salt Lake Center
10:22PM 43.2044 -107.0667 320° Northwest 395 455 32,000  Level Salt Lake Center
10:23PM 43.2900 -107.1639 320° Northwest 398 458 32,000  Level Salt Lake Center
10:24PM 43.3900 -107.2811 320° Northwest 397 457 32,000  Level Salt Lake Center
10:25PM 43.4742 -107.3814 319° Northwest 399 459 32,000  Level Salt Lake Center
10:26PM 43.5592 -107.4794 320° Northwest 399 459 32,000  Level Salt Lake Center
10:27PM 43.6442 -107.5797 320° Northwest 401 461 32,000  Level Salt Lake Center
10:28PM 43.7283 -107.6778 320° Northwest 397 457 32,000  Level Salt Lake Center
10:30PM 43.8108 -107.7769 319° Northwest 394 453 32,000 -1,260 Level Salt Lake Center
10:31PM 43.8956 -107.8744 320° Northwest 395 455 29,500 -2,760 Descending Salt Lake Center
10:32PM 43.9800 -107.9778 319° Northwest 402 463 26,500 -2,940 Descending Salt Lake Center
10:33PM 44.0561 -108.0889 314° West 397 457 23,500 -3,120 Descending Salt Lake Center
10:34PM 44.1411 -108.2186 312° West 379 436 20,200 -2,880 Descending Salt Lake Center
10:35PM 44.2086 -108.3231 312° West 367 422 17,600 -2,640 Descending Salt Lake Center
10:36PM 44.2731 -108.4244 312° West 360 414 14,800 -2,820 Descending Salt Lake Center
10:37PM 44.3367 -108.5228 312° West 351 404 11,900 -2,400 Descending Salt Lake Center
10:38PM 44.3992 -108.6183 312° West 343 395 10,000 -1,260 Descending Salt Lake Center
10:39PM 44.4442 -108.6972 309° West 296 341 9,400 -780 Descending Salt Lake Center
10:40PM 44.4817 -108.7703 306° West 257 296 8,500 -900 Descending Salt Lake Center
10:41PM 44.5175 -108.8422 305° West 238 274 7,600 -720 Descending Salt Lake Center
10:42PM 44.5425 -108.9139 296° West 224 258 7,100 -540 Descending Salt Lake Center